Corsica, PA

6:00 AM EST on March 05, 2015 (GMT -0500)
Heathville Road | Change Station
CLOSE
Current Station
Personal Weather Station
Location: Summerville, PA
Elevation: 1217 ft
Nearby Weather Stations

Elev 1217 ft 41.11 °N, 79.18 °W | Updated 1 second ago

Overcast
Overcast
17.8 °F
Feels Like 10 °F
N
5.4
Wind Variable Wind from NNW
Gusts 11.4 mph

Today
High -- | Low -- °F
--% Chance of Precip.
Yesterday
High -- | Low -- °F
Precip. -- in
6:45 AM 6:11 PM
Full, 100% visible
Pressure 30.14 in
Visibility 3.0 miles
Clouds Overcast 3700 ft
Windchill 10 °F
Dew Point 5 °F
Humidity 56%
Rainfall in
Snow Depth Not available.
UV 0 out of 12
Pollen .60 out of 12
Air Quality Not available.
Flu Activity Not available.
METAR KDUJ 051053Z AUTO 34010KT 3SM HZ OVC037 M09/M13 A3007 RMK AO2 SNE0955 SLP205 P0000 T10891128

More Conditions Fewer Conditions

Pressure 30.14 in
Visibility 3.0 miles
Clouds Overcast 3700 ft
Windchill 10 °F
Dew Point 5 °F
Humidity 56%
Rainfall in
Snow Depth Not available.
UV 0 out of 12
Pollen .60 out of 12
Air Quality Not available.
Flu Activity Not available.
METAR KDUJ 051053Z AUTO 34010KT 3SM HZ OVC037 M09/M13 A3007 RMK AO2 SNE0955 SLP205 P0000 T10891128

More Conditions Fewer Conditions

10-Day Weather Forecast

Almanac

Astronomy

Mar. 05, 2015 Rise Set
Actual Time
Civil Twilight
Nautical Twilight
Astronomical Twilight
Moon
Length of Visible Light
Length of Day
Tomorrow will be .
, % of the Moon is Illuminated

Today's Extremes

State Highs State Lows

Community

WunderPhotos

Upload Photos

1,802,714 photos uploaded!

WunderBlogs® & News

Nearby

Air Quality

  Air Quality AQ Index Pollutant
Not available.

Snow Depth

Station Depth Elevation

Earthquake Activity

City Distance Mag. Time & Date
Minimum magnitude displayed is 2.5.

Coastal Water Temperatures

Place Temperature

Nearby Weather Stations